Time;durP1;ratioP1;P1;durP2;ratioP2;P2;SDS_P1;SDS_P2;PMS_P1;PMS_P2;Temp;Humidity;BMP_temperature;BMP_pressure;BME280_temperature;BME280_humidity;BME280_pressure;Samples;Min_cycle;Max_cycle;Signal;HPM_P1;HPM_P2
2023/05/17 00:02:11;;;;;;;15.98;5.75;;;9.70;99.90;;;;;;5141255;27;20475;-34
2023/05/17 00:04:37;;;;;;;14.20;5.22;;;9.60;99.90;;;;;;5141455;27;20387;-35
2023/05/17 00:07:03;;;;;;;15.25;5.07;;;9.60;99.90;;;;;;5138021;27;20042;-38
2023/05/17 00:09:29;;;;;;;15.30;5.43;;;9.60;99.90;;;;;;5146182;27;20084;-34
2023/05/17 00:11:55;;;;;;;15.27;5.70;;;9.50;99.90;;;;;;5142794;27;20027;-36
2023/05/17 00:14:21;;;;;;;15.25;5.53;;;9.50;99.90;;;;;;5142666;27;20049;-35
2023/05/17 00:16:46;;;;;;;16.08;5.07;;;9.50;99.90;;;;;;5146159;27;20038;-34
2023/05/17 00:19:12;;;;;;;11.48;4.70;;;9.50;99.90;;;;;;5153775;27;20037;-35
2023/05/17 00:21:38;;;;;;;19.40;5.68;;;9.50;99.90;;;;;;5141588;27;20492;-39
2023/05/17 00:24:04;;;;;;;18.88;5.57;;;9.40;99.90;;;;;;5147007;27;20132;-34
2023/05/17 00:26:30;;;;;;;19.63;5.32;;;9.40;99.90;;;;;;5154653;27;20041;-36
2023/05/17 00:28:55;;;;;;;14.52;5.13;;;9.50;99.90;;;;;;5140813;27;20038;-35
2023/05/17 00:31:21;;;;;;;13.93;5.13;;;9.50;99.90;;;;;;5140785;27;20034;-37
2023/05/17 00:33:47;;;;;;;15.30;4.88;;;9.50;99.90;;;;;;5141987;27;20077;-34
2023/05/17 00:36:12;;;;;;;11.48;4.63;;;9.50;99.90;;;;;;5148261;27;20034;-35
2023/05/17 00:38:38;;;;;;;12.55;5.10;;;9.50;99.90;;;;;;5135582;27;20057;-38
2023/05/17 00:41:04;;;;;;;16.38;5.43;;;9.40;99.90;;;;;;5148586;27;20034;-35
2023/05/17 00:43:30;;;;;;;13.63;4.90;;;9.40;99.90;;;;;;5149258;27;20034;-34
2023/05/17 00:45:55;;;;;;;13.00;4.63;;;9.30;99.90;;;;;;5151790;27;20102;-34
2023/05/17 00:48:24;;;;;;;12.13;4.43;;;9.20;99.90;;;;;;5140469;27;20030;-37
2023/05/17 00:50:51;;;;;;;20.63;5.45;;;9.10;99.90;;;;;;5145649;27;20039;-35
2023/05/17 00:53:18;;;;;;;17.40;4.50;;;9.00;99.90;;;;;;5140651;27;20053;-35
2023/05/17 00:55:44;;;;;;;17.10;5.47;;;9.00;99.90;;;;;;5150538;27;20041;-35
2023/05/17 00:58:13;;;;;;;13.82;4.28;;;8.90;99.90;;;;;;5139621;27;20038;-34
2023/05/17 01:00:40;;;;;;;10.27;4.30;;;8.80;99.90;;;;;;5138074;27;20027;-35
2023/05/17 01:03:06;;;;;;;11.25;4.28;;;8.80;99.90;;;;;;5138057;27;20185;-34
2023/05/17 01:05:31;;;;;;;10.38;3.72;;;8.70;99.90;;;;;;5152767;27;20117;-34
2023/05/17 01:07:57;;;;;;;15.02;3.80;;;8.60;99.90;;;;;;5144185;27;20042;-35
2023/05/17 01:11:05;;;;;;;15.82;3.92;;;8.60;99.90;;;;;;5145905;27;20436;-36
2023/05/17 01:13:55;;;;;;;12.75;3.75;;;8.50;99.90;;;;;;5140837;27;20026;-35
2023/05/17 01:16:29;;;;;;;13.00;3.95;;;8.40;99.90;;;;;;5152992;27;20094;-39
2023/05/17 01:19:04;;;;;;;11.77;3.85;;;8.40;99.90;;;;;;5145211;27;20038;-35
2023/05/17 01:21:38;;;;;;;15.88;3.80;;;8.30;99.90;;;;;;5137698;27;20035;-35
2023/05/17 01:24:16;;;;;;;15.77;4.20;;;8.30;99.90;;;;;;5148183;27;20070;-35
2023/05/17 01:26:43;;;;;;;11.20;3.78;;;8.20;99.90;;;;;;5134931;27;20126;-37
2023/05/17 01:29:11;;;;;;;12.45;3.78;;;8.20;99.90;;;;;;5145062;27;20079;-36
2023/05/17 01:31:38;;;;;;;12.30;4.07;;;8.10;99.90;;;;;;5144134;27;20392;-35
2023/05/17 01:34:08;;;;;;;12.52;4.00;;;8.10;99.90;;;;;;5155589;27;20038;-35
2023/05/17 01:36:34;;;;;;;20.35;4.32;;;8.10;99.90;;;;;;5142361;27;20042;-36
2023/05/17 01:39:00;;;;;;;15.40;3.83;;;8.10;99.90;;;;;;5137452;27;20175;-35
2023/05/17 01:41:34;;;;;;;10.40;3.60;;;8.10;99.90;;;;;;5153697;27;20039;-36
2023/05/17 01:44:36;;;;;;;11.52;4.10;;;8.10;99.90;;;;;;5158522;27;20038;-35
2023/05/17 01:47:34;;;;;;;12.40;3.20;;;8.00;99.90;;;;;;5152242;27;20396;-37
2023/05/17 01:50:04;;;;;;;11.40;3.67;;;8.00;99.90;;;;;;5077683;27;20055;-35
2023/05/17 01:53:05;;;;;;;15.38;3.45;;;8.10;99.90;;;;;;5155513;27;20031;-37
2023/05/17 01:55:47;;;;;;;13.48;3.33;;;8.10;99.90;;;;;;5127633;27;20105;-35
2023/05/17 01:58:13;;;;;;;16.00;4.65;;;8.00;99.90;;;;;;5146170;27;20500;-36
2023/05/17 02:00:41;;;;;;;17.30;4.93;;;8.10;99.90;;;;;;5153438;27;20523;-36
2023/05/17 02:03:12;;;;;;;11.95;3.72;;;8.10;99.90;;;;;;5144361;27;20066;-36
2023/05/17 02:05:38;;;;;;;11.68;4.03;;;8.10;99.90;;;;;;5155652;27;20034;-36
2023/05/17 02:08:04;;;;;;;13.45;3.67;;;8.10;99.90;;;;;;5150380;27;20376;-36
2023/05/17 02:10:30;;;;;;;15.93;4.10;;;8.10;99.90;;;;;;5151693;27;20038;-34
2023/05/17 02:12:56;;;;;;;19.10;4.07;;;8.10;99.90;;;;;;5157301;27;20045;-37
2023/05/17 02:15:21;;;;;;;17.80;4.05;;;8.10;99.90;;;;;;5139665;27;20473;-37
2023/05/17 02:17:47;;;;;;;10.20;3.70;;;8.10;99.90;;;;;;5167809;27;20038;-35
2023/05/17 02:20:13;;;;;;;17.08;3.70;;;8.10;99.90;;;;;;5146446;27;20039;-35
2023/05/17 02:22:39;;;;;;;11.65;3.75;;;8.00;99.90;;;;;;5140600;27;20488;-35
2023/05/17 02:25:06;;;;;;;16.13;4.05;;;8.00;99.90;;;;;;5157617;27;20045;-35
2023/05/17 02:27:31;;;;;;;12.27;3.35;;;8.00;99.90;;;;;;5143470;27;20118;-35
2023/05/17 02:29:57;;;;;;;14.90;3.80;;;8.00;99.90;;;;;;5143911;27;20133;-35
2023/05/17 02:32:23;;;;;;;16.48;3.47;;;8.00;99.90;;;;;;5147194;27;20483;-34
2023/05/17 02:34:49;;;;;;;18.90;3.88;;;8.00;99.90;;;;;;5138140;27;20039;-33
2023/05/17 02:37:14;;;;;;;14.50;3.88;;;8.00;99.90;;;;;;5142397;27;20091;-35
2023/05/17 02:39:40;;;;;;;10.98;3.65;;;8.10;99.90;;;;;;5137760;27;20042;-35
2023/05/17 02:42:06;;;;;;;9.40;3.47;;;8.10;99.90;;;;;;5145481;27;20038;-34
2023/05/17 02:44:32;;;;;;;11.60;3.47;;;8.10;99.90;;;;;;5150926;27;20038;-36
2023/05/17 02:46:57;;;;;;;12.85;3.85;;;8.00;99.90;;;;;;5156423;27;20034;-37
2023/05/17 02:49:26;;;;;;;13.50;3.88;;;8.00;99.90;;;;;;5154334;27;20049;-34
2023/05/17 02:51:52;;;;;;;11.52;3.58;;;7.90;99.90;;;;;;5158718;27;20483;-35
2023/05/17 02:54:18;;;;;;;19.80;4.10;;;7.90;99.90;;;;;;5138452;27;20122;-35
2023/05/17 02:56:43;;;;;;;15.30;3.47;;;7.80;99.90;;;;;;5158238;27;20031;-33
2023/05/17 02:59:09;;;;;;;16.42;3.70;;;7.80;99.90;;;;;;5139148;27;20038;-34
2023/05/17 03:01:35;;;;;;;16.27;3.72;;;7.70;99.90;;;;;;5156146;27;20296;-34
2023/05/17 03:04:01;;;;;;;11.95;3.38;;;7.70;99.90;;;;;;5137462;27;20038;-34
2023/05/17 03:06:26;;;;;;;19.13;3.63;;;7.60;99.90;;;;;;5139718;27;20053;-35
2023/05/17 03:08:52;;;;;;;14.70;4.55;;;7.60;99.90;;;;;;5150223;27;20030;-35
2023/05/17 03:11:18;;;;;;;15.00;4.00;;;7.50;99.90;;;;;;5152225;27;20026;-34
2023/05/17 03:13:45;;;;;;;10.77;3.95;;;7.50;99.90;;;;;;5158167;27;20498;-34
2023/05/17 03:16:11;;;;;;;22.45;4.90;;;7.40;99.90;;;;;;5140086;27;20050;-36
2023/05/17 03:18:36;;;;;;;17.25;3.75;;;7.40;99.90;;;;;;5137118;27;20074;-36
2023/05/17 03:21:02;;;;;;;18.63;3.75;;;7.30;99.90;;;;;;5137004;27;20083;-35
2023/05/17 03:23:28;;;;;;;13.35;3.33;;;7.30;99.90;;;;;;5144771;27;20391;-33
2023/05/17 03:25:54;;;;;;;14.48;3.33;;;7.20;99.90;;;;;;5157591;27;20034;-35
2023/05/17 03:28:19;;;;;;;15.52;3.88;;;7.20;99.90;;;;;;5138410;27;20035;-35
2023/05/17 03:30:45;;;;;;;16.38;4.00;;;7.10;99.90;;;;;;5136907;27;20031;-36
2023/05/17 03:33:11;;;;;;;13.80;3.72;;;7.10;99.90;;;;;;5136433;27;20046;-37
2023/05/17 03:35:36;;;;;;;14.57;3.47;;;7.00;99.90;;;;;;5144005;27;20042;-34
2023/05/17 03:38:02;;;;;;;13.25;3.80;;;7.00;99.90;;;;;;5148990;27;20034;-33
2023/05/17 03:40:28;;;;;;;14.30;3.70;;;6.90;99.90;;;;;;5162597;27;20034;-36
2023/05/17 03:42:54;;;;;;;12.63;4.25;;;6.90;99.90;;;;;;5164792;27;20038;-35
2023/05/17 03:45:20;;;;;;;11.48;3.50;;;6.90;99.90;;;;;;5140166;27;20111;-34
2023/05/17 03:47:45;;;;;;;15.32;3.88;;;6.80;99.90;;;;;;5144295;27;20050;-36
2023/05/17 03:50:11;;;;;;;14.88;3.88;;;6.80;99.90;;;;;;5143445;27;20035;-35
2023/05/17 03:52:37;;;;;;;11.07;4.22;;;6.80;99.90;;;;;;5151061;27;20030;-34
2023/05/17 03:55:03;;;;;;;15.00;3.67;;;6.80;99.90;;;;;;5148516;27;20129;-34
2023/05/17 03:57:28;;;;;;;17.23;3.97;;;6.90;99.90;;;;;;5157025;27;20034;-35
2023/05/17 03:59:54;;;;;;;11.00;2.85;;;6.90;99.90;;;;;;5157370;27;20045;-35
2023/05/17 04:02:23;;;;;;;10.30;3.33;;;7.00;99.90;;;;;;5144137;27;20052;-36
2023/05/17 04:04:49;;;;;;;18.73;3.58;;;7.10;99.90;;;;;;5136600;27;20453;-34
2023/05/17 04:07:16;;;;;;;8.93;3.10;;;7.10;99.90;;;;;;5136070;27;20031;-36
2023/05/17 04:09:42;;;;;;;12.77;3.15;;;7.20;99.90;;;;;;5136116;27;20034;-34
2023/05/17 04:12:09;;;;;;;13.50;4.10;;;7.30;99.90;;;;;;5139554;27;20023;-35
2023/05/17 04:14:36;;;;;;;23.85;4.15;;;7.30;99.90;;;;;;5140460;27;20147;-35
2023/05/17 04:17:02;;;;;;;11.20;2.90;;;7.30;99.90;;;;;;5146405;27;20078;-37
2023/05/17 04:19:27;;;;;;;11.38;3.65;;;7.40;99.90;;;;;;5154019;27;20038;-35
2023/05/17 04:21:53;;;;;;;11.35;3.38;;;7.50;99.90;;;;;;5137805;27;20043;-38
2023/05/17 04:24:19;;;;;;;13.68;3.78;;;7.50;99.90;;;;;;5137552;27;20074;-36
2023/05/17 04:26:48;;;;;;;10.35;3.05;;;7.50;99.90;;;;;;5155061;27;20038;-35
2023/05/17 04:29:14;;;;;;;12.25;3.22;;;7.60;99.90;;;;;;5156766;27;20042;-32
2023/05/17 04:31:39;;;;;;;17.25;3.78;;;7.60;99.90;;;;;;5151301;27;20391;-35
2023/05/17 04:34:05;;;;;;;9.82;3.00;;;7.70;99.90;;;;;;5173965;27;20507;-36
2023/05/17 04:36:31;;;;;;;13.40;3.38;;;7.70;99.90;;;;;;5141707;27;20117;-35
2023/05/17 04:38:57;;;;;;;10.55;3.20;;;7.70;99.90;;;;;;5146061;27;20421;-35
2023/05/17 04:41:22;;;;;;;10.55;3.20;;;7.80;99.90;;;;;;5150403;27;20030;-34
2023/05/17 04:43:48;;;;;;;13.80;4.53;;;7.80;99.90;;;;;;5138590;27;20387;-34
2023/05/17 04:46:14;;;;;;;12.38;3.03;;;7.80;99.90;;;;;;5136781;27;20062;-35
2023/05/17 04:48:40;;;;;;;11.27;3.28;;;7.80;99.90;;;;;;5137670;27;20038;-36
2023/05/17 04:51:06;;;;;;;16.33;3.33;;;7.90;99.90;;;;;;5152711;27;20034;-34
2023/05/17 04:53:32;;;;;;;11.23;3.47;;;7.90;99.90;;;;;;5153052;27;20041;-34
2023/05/17 04:55:58;;;;;;;14.52;3.45;;;7.90;99.90;;;;;;5146662;27;20042;-35
2023/05/17 04:58:24;;;;;;;14.27;3.53;;;7.90;99.90;;;;;;5137820;27;20061;-37
2023/05/17 05:00:50;;;;;;;15.35;3.15;;;7.90;99.90;;;;;;5138250;27;20480;-35
2023/05/17 05:03:17;;;;;;;12.40;3.47;;;7.90;99.90;;;;;;5142502;27;20091;-38
2023/05/17 05:05:43;;;;;;;14.50;3.00;;;7.90;99.90;;;;;;5141837;27;20515;-35
2023/05/17 05:08:08;;;;;;;16.85;3.50;;;7.90;99.90;;;;;;5144234;27;20053;-36
2023/05/17 05:10:34;;;;;;;10.38;3.80;;;8.00;99.90;;;;;;5148467;27;20042;-36
2023/05/17 05:13:00;;;;;;;12.70;2.90;;;8.10;99.90;;;;;;5136272;27;20039;-35
2023/05/17 05:15:26;;;;;;;12.32;3.25;;;8.20;99.90;;;;;;5136228;27;20118;-34
2023/05/17 05:17:52;;;;;;;12.38;2.80;;;8.40;99.90;;;;;;5127694;27;20495;-36
2023/05/17 05:20:17;;;;;;;9.73;2.58;;;8.50;99.90;;;;;;5154843;27;20057;-36
2023/05/17 05:22:43;;;;;;;10.05;3.03;;;8.70;99.90;;;;;;5154267;27;20034;-35
2023/05/17 05:25:09;;;;;;;9.82;2.55;;;8.80;99.90;;;;;;5155394;27;20077;-35
2023/05/17 05:27:35;;;;;;;8.07;2.08;;;9.00;99.90;;;;;;5117943;27;20515;-33
2023/05/17 05:30:02;;;;;;;11.98;3.05;;;9.10;99.90;;;;;;5135352;27;20027;-33
2023/05/17 05:32:28;;;;;;;10.70;2.17;;;9.20;99.90;;;;;;5149044;27;20034;-33
2023/05/17 05:34:53;;;;;;;7.03;2.35;;;9.20;99.90;;;;;;5155833;27;20407;-35
2023/05/17 05:37:19;;;;;;;9.30;2.20;;;9.20;99.90;;;;;;5155917;27;20074;-37
2023/05/17 05:39:45;;;;;;;6.35;1.95;;;9.20;99.90;;;;;;5143784;27;20513;-35
2023/05/17 05:42:11;;;;;;;8.02;1.85;;;9.10;99.90;;;;;;5151068;27;20059;-36
2023/05/17 05:44:37;;;;;;;11.00;2.72;;;9.00;99.90;;;;;;5138761;27;20103;-35
2023/05/17 05:47:03;;;;;;;4.60;1.63;;;9.00;99.90;;;;;;5140493;27;20042;-36
2023/05/17 05:49:29;;;;;;;7.60;1.90;;;9.00;99.90;;;;;;5153871;27;20183;-35
2023/05/17 05:51:54;;;;;;;7.57;1.73;;;9.10;99.90;;;;;;5153547;27;20121;-35
2023/05/17 05:54:20;;;;;;;5.07;2.15;;;9.10;99.90;;;;;;5154330;27;20035;-36
2023/05/17 05:56:46;;;;;;;7.50;1.95;;;9.10;99.90;;;;;;5142122;27;20043;-33
2023/05/17 05:59:12;;;;;;;11.02;1.90;;;9.10;99.90;;;;;;5147793;27;20485;-34
2023/05/17 06:01:37;;;;;;;4.72;1.67;;;9.20;99.90;;;;;;5144044;27;20031;-35
2023/05/17 06:04:03;;;;;;;6.35;1.30;;;9.30;99.90;;;;;;5136118;27;20523;-34
2023/05/17 06:06:30;;;;;;;3.55;1.50;;;9.30;99.90;;;;;;5155627;27;20042;-34
2023/05/17 06:08:55;;;;;;;7.63;1.70;;;9.40;99.90;;;;;;5134570;27;20042;-37
2023/05/17 06:11:22;;;;;;;5.68;1.80;;;9.50;99.90;;;;;;5128965;27;20045;-35
2023/05/17 06:13:48;;;;;;;5.88;1.67;;;9.50;99.90;;;;;;5155557;27;20619;-35
2023/05/17 06:16:14;;;;;;;6.40;1.50;;;9.60;99.90;;;;;;5136520;27;20043;-34
2023/05/17 06:18:40;;;;;;;10.90;2.03;;;9.60;99.90;;;;;;5134745;27;20039;-35
2023/05/17 06:21:05;;;;;;;7.10;1.83;;;9.70;99.90;;;;;;5150874;27;20034;-35
2023/05/17 06:23:31;;;;;;;8.50;1.85;;;9.70;99.90;;;;;;5129601;27;20081;-36
2023/05/17 06:25:57;;;;;;;9.63;1.63;;;9.90;99.90;;;;;;5141187;27;20455;-33
2023/05/17 06:28:23;;;;;;;9.00;1.60;;;10.00;99.90;;;;;;5148976;27;20586;-38
2023/05/17 06:30:48;;;;;;;6.20;1.23;;;9.90;99.90;;;;;;5142835;27;20170;-35
2023/05/17 06:33:14;;;;;;;5.38;1.63;;;9.80;99.90;;;;;;5149081;27;20035;-35
2023/05/17 06:35:40;;;;;;;4.13;1.60;;;9.80;99.90;;;;;;5146685;27;20038;-37
2023/05/17 06:38:06;;;;;;;4.50;1.73;;;9.80;99.90;;;;;;5158093;27;20528;-35
2023/05/17 06:40:32;;;;;;;8.35;1.48;;;9.90;99.90;;;;;;5150347;27;20111;-33
2023/05/17 06:42:58;;;;;;;4.75;1.38;;;10.10;99.90;;;;;;5137739;27;20035;-35
2023/05/17 06:45:25;;;;;;;6.95;1.42;;;10.20;99.90;;;;;;5154174;27;20106;-38
2023/05/17 06:47:52;;;;;;;7.20;1.55;;;10.40;99.90;;;;;;5158719;27;20511;-35
2023/05/17 06:50:17;;;;;;;7.53;1.50;;;10.50;99.90;;;;;;5144168;27;20054;-33
2023/05/17 06:52:43;;;;;;;6.85;1.98;;;10.70;99.90;;;;;;5150424;27;20407;-37
2023/05/17 06:55:09;;;;;;;8.05;1.90;;;10.80;99.90;;;;;;5157403;27;20073;-35
2023/05/17 06:57:35;;;;;;;6.00;1.58;;;11.00;99.90;;;;;;5158457;27;20045;-35
2023/05/17 07:00:01;;;;;;;3.95;1.60;;;11.00;99.90;;;;;;5147822;27;20030;-38
2023/05/17 07:02:29;;;;;;;5.30;1.70;;;11.20;99.90;;;;;;5156794;27;20042;-35
2023/05/17 07:04:55;;;;;;;13.43;6.43;;;11.30;99.90;;;;;;5156335;27;20034;-36
2023/05/17 07:07:21;;;;;;;11.55;6.88;;;11.40;99.90;;;;;;5161780;27;20082;-36
2023/05/17 07:09:46;;;;;;;6.68;2.17;;;11.60;99.90;;;;;;5138321;27;20035;-36
2023/05/17 07:12:12;;;;;;;6.57;1.77;;;11.70;99.90;;;;;;5176007;27;20502;-39
2023/05/17 07:14:38;;;;;;;5.10;1.50;;;11.70;99.90;;;;;;5141693;27;20038;-35
2023/05/17 07:17:04;;;;;;;9.20;1.80;;;11.80;99.90;;;;;;5142629;27;20083;-39
2023/05/17 07:19:30;;;;;;;5.72;1.45;;;11.90;99.90;;;;;;5151303;27;20073;-34
2023/05/17 07:21:56;;;;;;;7.70;2.08;;;12.20;99.90;;;;;;5140204;27;20479;-36
2023/05/17 07:24:21;;;;;;;6.60;1.63;;;12.50;99.90;;;;;;5138212;27;20038;-36
2023/05/17 07:26:47;;;;;;;6.53;1.98;;;12.70;99.90;;;;;;5142927;27;20049;-36
2023/05/17 07:29:13;;;;;;;4.30;1.73;;;12.90;99.90;;;;;;5144433;27;20061;-37
2023/05/17 07:31:39;;;;;;;6.32;1.60;;;13.10;99.90;;;;;;5136919;27;20087;-33
2023/05/17 07:34:05;;;;;;;8.95;2.15;;;13.20;99.90;;;;;;5119979;27;20042;-33
2023/05/17 07:36:30;;;;;;;5.20;1.63;;;13.30;99.90;;;;;;5136577;27;20041;-34
2023/05/17 07:38:57;;;;;;;6.55;1.77;;;13.20;99.90;;;;;;5128939;27;20113;-36
2023/05/17 07:41:22;;;;;;;6.03;1.75;;;13.10;99.90;;;;;;5142540;27;20039;-36
2023/05/17 07:43:49;;;;;;;11.25;2.60;;;13.00;99.90;;;;;;5140141;27;20039;-36
2023/05/17 07:46:16;;;;;;;6.93;2.25;;;12.90;99.90;;;;;;5147049;27;20109;-35
2023/05/17 07:48:42;;;;;;;6.53;1.85;;;12.90;99.90;;;;;;5142375;27;20118;-32
2023/05/17 07:51:08;;;;;;;6.65;1.70;;;13.00;99.90;;;;;;5157630;27;20125;-36
2023/05/17 07:53:33;;;;;;;9.35;2.08;;;13.10;99.90;;;;;;5143806;27;20111;-34
2023/05/17 07:55:59;;;;;;;9.52;2.05;;;13.20;99.90;;;;;;5156035;27;20502;-35
2023/05/17 07:58:25;;;;;;;8.02;2.45;;;13.30;99.90;;;;;;5151693;27;20054;-39
2023/05/17 08:00:50;;;;;;;6.85;2.33;;;13.60;99.90;;;;;;5146159;27;20066;-38
2023/05/17 08:03:16;;;;;;;8.82;2.40;;;13.50;99.90;;;;;;5136555;27;20050;-36
2023/05/17 08:05:42;;;;;;;6.20;2.15;;;13.40;99.90;;;;;;5144750;27;20042;-34
2023/05/17 08:08:08;;;;;;;14.65;2.47;;;13.50;99.90;;;;;;5126952;27;20095;-36
2023/05/17 08:10:35;;;;;;;11.30;2.50;;;13.40;99.90;;;;;;5149838;27;20143;-35
2023/05/17 08:13:01;;;;;;;11.68;2.70;;;13.20;99.90;;;;;;5148446;27;20042;-34
2023/05/17 08:15:26;;;;;;;10.18;2.50;;;13.00;99.90;;;;;;5156609;27;20398;-33
2023/05/17 08:17:52;;;;;;;7.63;2.08;;;13.20;99.90;;;;;;5140392;27;20034;-34
2023/05/17 08:20:18;;;;;;;11.93;2.50;;;13.30;99.90;;;;;;5151401;27;20476;-35
2023/05/17 08:22:44;;;;;;;8.95;2.10;;;13.30;99.90;;;;;;5167966;27;20046;-33
2023/05/17 08:25:10;;;;;;;7.07;2.33;;;13.40;99.90;;;;;;5149508;27;20034;-38
2023/05/17 08:27:37;;;;;;;8.80;2.45;;;13.80;99.90;;;;;;5144666;27;20391;-35
2023/05/17 08:30:03;;;;;;;7.60;2.53;;;14.10;99.90;;;;;;5141801;27;20102;-35
2023/05/17 08:32:29;;;;;;;8.73;2.30;;;14.10;99.90;;;;;;5149213;27;20034;-35
2023/05/17 08:34:56;;;;;;;10.10;2.30;;;14.20;99.90;;;;;;5134651;27;20045;-36
2023/05/17 08:37:22;;;;;;;10.73;2.08;;;14.10;99.90;;;;;;5142030;27;20042;-35
2023/05/17 08:39:50;;;;;;;9.93;2.20;;;14.10;99.90;;;;;;5136292;27;20039;-34
2023/05/17 08:42:24;;;;;;;6.97;2.00;;;14.30;99.90;;;;;;5140977;27;20106;-35
2023/05/17 08:44:51;;;;;;;9.32;2.20;;;14.40;97.50;;;;;;5150915;27;20030;-35
2023/05/17 08:47:28;;;;;;;8.80;2.30;;;14.40;99.90;;;;;;5144379;27;20094;-35
2023/05/17 08:49:59;;;;;;;9.57;2.50;;;14.40;99.90;;;;;;5145168;27;20069;-36
2023/05/17 08:52:31;;;;;;;8.80;2.33;;;14.50;99.90;;;;;;5147238;27;20551;-35
2023/05/17 08:55:04;;;;;;;7.43;2.03;;;14.60;96.50;;;;;;5145254;27;20060;-34
2023/05/17 08:57:31;;;;;;;11.27;2.33;;;14.70;99.90;;;;;;5138739;27;20069;-34
2023/05/17 09:00:14;;;;;;;6.38;2.13;;;15.00;99.10;;;;;;5140946;27;20038;-34
2023/05/17 09:02:43;;;;;;;6.55;2.35;;;14.90;95.90;;;;;;5154301;27;20463;-34
2023/05/17 09:05:09;;;;;;;10.25;2.38;;;14.80;93.60;;;;;;5145312;27;20033;-34
2023/05/17 09:07:35;;;;;;;9.55;2.25;;;14.60;96.20;;;;;;5148785;27;20073;-34
2023/05/17 09:10:05;;;;;;;8.82;2.28;;;14.40;95.20;;;;;;5148438;27;20038;-34
2023/05/17 09:12:34;;;;;;;7.43;2.58;;;14.30;98.20;;;;;;5149415;27;20030;-35
2023/05/17 09:15:25;;;;;;;5.22;2.15;;;14.50;89.70;;;;;;5136232;27;20043;-34
2023/05/17 09:17:56;;;;;;;8.55;2.03;;;14.40;92.90;;;;;;5141583;27;20041;-34
2023/05/17 09:20:33;;;;;;;6.97;2.20;;;14.40;98.90;;;;;;5139078;27;20030;-34
2023/05/17 09:23:03;;;;;;;11.27;2.60;;;14.40;99.90;;;;;;5136029;27;20034;-34
2023/05/17 09:25:30;;;;;;;6.57;2.03;;;14.40;97.80;;;;;;5152211;27;20037;-34
2023/05/17 09:28:01;;;;;;;8.25;2.33;;;14.40;99.90;;;;;;5146441;27;20050;-34
2023/05/17 09:30:28;;;;;;;7.95;2.20;;;14.60;94.80;;;;;;5150319;27;20062;-34
2023/05/17 09:32:54;;;;;;;7.65;2.22;;;14.60;99.10;;;;;;5141686;27;20042;-34
2023/05/17 09:35:33;;;;;;;8.70;2.08;;;14.60;98.50;;;;;;5158329;27;20043;-34
2023/05/17 09:38:10;;;;;;;6.43;2.13;;;14.70;92.20;;;;;;5139867;27;20495;-34
2023/05/17 09:40:47;;;;;;;7.75;2.35;;;14.80;90.90;;;;;;5142524;27;20038;-34
2023/05/17 09:43:15;;;;;;;10.73;2.08;;;15.10;89.30;;;;;;5140065;27;20030;-34
2023/05/17 09:45:41;;;;;;;7.78;2.10;;;15.30;92.30;;;;;;5150735;27;20052;-34
2023/05/17 09:48:17;;;;;;;10.80;2.10;;;15.40;79.90;;;;;;5142678;27;20038;-34
2023/05/17 09:50:45;;;;;;;8.93;2.38;;;15.50;66.00;;;;;;5148089;27;20042;-34
2023/05/17 09:53:31;;;;;;;8.15;2.40;;;15.50;78.10;;;;;;5151355;27;20099;-34
2023/05/17 09:55:59;;;;;;;5.13;2.05;;;16.20;71.30;;;;;;5147661;27;20026;-34
2023/05/17 09:58:27;;;;;;;5.25;1.75;;;16.50;65.20;;;;;;5150252;27;20045;-34
2023/05/17 10:01:06;;;;;;;8.90;2.70;;;16.70;69.00;;;;;;5153416;27;20034;-34
2023/05/17 10:03:36;;;;;;;6.65;1.98;;;16.70;66.10;;;;;;5134891;27;20056;-34
2023/05/17 10:06:06;;;;;;;6.90;2.25;;;16.70;67.90;;;;;;5154903;27;20049;-34
2023/05/17 10:08:33;;;;;;;14.68;3.28;;;16.50;66.20;;;;;;5138413;27;20038;-34
2023/05/17 10:11:06;;;;;;;8.82;2.47;;;16.20;64.20;;;;;;5144969;27;20483;-34
2023/05/17 10:13:54;;;;;;;8.70;2.40;;;16.20;64.60;;;;;;5171042;27;20031;-34
2023/05/17 10:16:22;;;;;;;8.90;2.33;;;16.10;65.00;;;;;;5140696;27;20042;-34
2023/05/17 10:18:48;;;;;;;8.63;2.47;;;16.00;66.10;;;;;;5148073;27;20042;-34
2023/05/17 10:21:15;;;;;;;8.00;2.53;;;16.00;67.80;;;;;;5149744;27;20039;-34
2023/05/17 10:23:43;;;;;;;8.93;2.70;;;16.60;74.90;;;;;;5140920;27;20054;-34
2023/05/17 10:26:09;;;;;;;6.45;2.60;;;17.20;70.60;;;;;;5138938;27;20511;-34
2023/05/17 10:28:36;;;;;;;13.23;2.83;;;17.70;69.30;;;;;;5157463;27;20045;-35
2023/05/17 10:31:03;;;;;;;6.63;1.90;;;18.20;68.40;;;;;;5138014;27;20117;-34
2023/05/17 10:33:31;;;;;;;8.60;2.55;;;18.50;63.90;;;;;;5144907;27;20359;-36
2023/05/17 10:35:58;;;;;;;6.95;2.00;;;18.50;59.40;;;;;;5154454;27;20039;-37
2023/05/17 10:38:26;;;;;;;5.28;2.03;;;18.80;56.70;;;;;;5143271;27;20038;-35
2023/05/17 10:40:53;;;;;;;8.23;1.98;;;19.10;55.90;;;;;;5148963;27;20035;-35
2023/05/17 10:43:20;;;;;;;6.88;2.30;;;19.50;56.80;;;;;;5149596;27;20035;-36
2023/05/17 10:45:46;;;;;;;5.30;1.95;;;19.40;55.70;;;;;;5149241;27;20050;-35
2023/05/17 10:48:14;;;;;;;5.60;2.17;;;19.10;54.70;;;;;;5137795;27;20035;-35
2023/05/17 10:50:41;;;;;;;8.48;2.30;;;18.90;54.60;;;;;;5145330;27;20030;-35
2023/05/17 10:53:10;;;;;;;9.02;2.15;;;19.00;54.50;;;;;;5141341;27;20039;-35
2023/05/17 10:55:41;;;;;;;9.80;2.60;;;19.10;53.50;;;;;;5137432;27;20039;-36
2023/05/17 10:58:08;;;;;;;6.50;2.13;;;19.50;54.30;;;;;;5166952;27;20026;-36
2023/05/17 11:00:39;;;;;;;6.20;2.13;;;19.90;52.50;;;;;;5152648;27;20042;-37
2023/05/17 11:03:19;;;;;;;7.40;1.90;;;20.00;51.30;;;;;;5146162;27;20042;-36
2023/05/17 11:06:20;;;;;;;7.80;1.95;;;19.70;49.80;;;;;;5137886;27;20035;-36
2023/05/17 11:09:06;;;;;;;7.28;2.00;;;19.40;48.00;;;;;;5136193;27;20504;-35
2023/05/17 11:11:33;;;;;;;4.90;1.63;;;19.00;49.60;;;;;;5148635;27;20117;-36
2023/05/17 11:14:03;;;;;;;5.72;2.20;;;18.70;50.30;;;;;;5149242;27;20391;-35
2023/05/17 11:16:36;;;;;;;4.90;1.65;;;18.80;49.80;;;;;;5151417;27;20039;-35
2023/05/17 11:19:11;;;;;;;7.95;2.13;;;19.20;51.90;;;;;;5153992;27;20036;-37
2023/05/17 11:21:47;;;;;;;5.78;1.67;;;19.70;49.80;;;;;;5154178;27;20034;-36
2023/05/17 11:24:19;;;;;;;5.57;1.70;;;19.40;49.60;;;;;;5157620;27;20034;-37
2023/05/17 11:26:45;;;;;;;6.88;2.03;;;19.30;49.10;;;;;;5158351;27;20464;-36
2023/05/17 11:29:11;;;;;;;5.70;1.75;;;19.20;49.30;;;;;;5141719;27;20070;-35
2023/05/17 11:31:43;;;;;;;4.30;1.73;;;19.40;49.80;;;;;;5137676;27;20041;-35
2023/05/17 11:34:10;;;;;;;5.82;1.83;;;20.00;48.70;;;;;;5145917;27;20035;-35
2023/05/17 11:36:51;;;;;;;5.90;1.73;;;19.90;48.30;;;;;;5143776;27;20078;-36
2023/05/17 11:39:27;;;;;;;6.63;1.95;;;19.50;45.50;;;;;;5150429;27;20035;-36
2023/05/17 11:41:57;;;;;;;5.53;1.75;;;19.10;47.90;;;;;;5152061;27;20084;-35
2023/05/17 11:44:25;;;;;;;6.88;2.25;;;19.00;48.40;;;;;;5149094;27;20373;-35
2023/05/17 11:46:59;;;;;;;5.22;1.77;;;19.40;48.30;;;;;;5151208;27;20045;-35
2023/05/17 11:49:25;;;;;;;3.63;1.77;;;19.80;48.20;;;;;;5155802;27;20508;-36
2023/05/17 11:51:54;;;;;;;4.32;1.60;;;19.80;47.10;;;;;;5141073;27;20038;-35
2023/05/17 11:54:26;;;;;;;7.35;2.70;;;20.10;46.50;;;;;;5135276;27;20042;-38
2023/05/17 11:56:53;;;;;;;3.72;1.40;;;20.50;45.90;;;;;;5163824;27;20038;-36
2023/05/17 11:59:22;;;;;;;6.10;2.00;;;20.30;45.80;;;;;;5149941;27;20043;-36
2023/05/17 12:01:49;;;;;;;5.38;1.77;;;20.50;45.90;;;;;;5145656;27;20109;-36
2023/05/17 12:04:24;;;;;;;4.53;1.58;;;20.00;45.90;;;;;;5141694;27;20030;-36
2023/05/17 12:06:50;;;;;;;5.88;1.70;;;19.70;46.40;;;;;;5144226;27;20062;-36
2023/05/17 12:09:20;;;;;;;6.72;1.45;;;19.80;47.60;;;;;;5144531;27;20061;-36
2023/05/17 12:11:46;;;;;;;3.38;1.67;;;20.00;47.20;;;;;;5141961;27;20121;-35
2023/05/17 12:14:19;;;;;;;3.97;2.00;;;20.70;46.60;;;;;;5139673;27;20102;-36
2023/05/17 12:16:51;;;;;;;5.03;1.52;;;20.80;45.70;;;;;;5144855;27;20042;-35
2023/05/17 12:19:18;;;;;;;5.32;1.58;;;21.00;45.70;;;;;;5141960;27;20038;-36
2023/05/17 12:21:45;;;;;;;4.93;1.88;;;21.30;46.40;;;;;;5143569;27;20093;-36
2023/05/17 12:24:11;;;;;;;6.38;1.90;;;21.50;45.30;;;;;;5147476;27;20042;-36
2023/05/17 12:26:43;;;;;;;4.22;1.80;;;22.00;44.60;;;;;;5142041;27;20034;-36
2023/05/17 12:29:09;;;;;;;3.95;1.65;;;22.00;43.10;;;;;;5147742;27;20059;-36
2023/05/17 12:31:37;;;;;;;2.88;1.60;;;22.00;43.10;;;;;;5154075;27;20041;-36
2023/05/17 12:34:08;;;;;;;5.63;1.70;;;21.90;43.40;;;;;;5138672;27;20042;-37
2023/05/17 12:36:35;;;;;;;6.00;2.15;;;21.90;43.60;;;;;;5137809;27;20078;-37
2023/05/17 12:39:02;;;;;;;6.72;1.95;;;21.90;43.90;;;;;;5152399;27;20508;-38
2023/05/17 12:41:29;;;;;;;5.80;1.98;;;22.10;42.80;;;;;;5142633;27;20399;-39
2023/05/17 12:43:54;;;;;;;6.35;1.98;;;22.30;42.60;;;;;;5173930;27;20026;-37
2023/05/17 12:46:22;;;;;;;5.82;1.60;;;22.40;42.50;;;;;;5150473;27;20337;-37
2023/05/17 12:48:51;;;;;;;3.38;1.52;;;22.40;42.40;;;;;;5142855;27;20066;-36
2023/05/17 12:51:20;;;;;;;4.97;1.55;;;22.50;42.60;;;;;;5150866;27;20442;-40
2023/05/17 12:53:58;;;;;;;6.32;2.15;;;22.90;43.60;;;;;;5145772;27;20031;-38